Time;durP1;ratioP1;P1;durP2;ratioP2;P2;SDS_P1;SDS_P2;PMS_P1;PMS_P2;Temp;Humidity;BMP_temperature;BMP_pressure;BME280_temperature;BME280_humidity;BME280_pressure;Samples;Min_cycle;Max_cycle;Signal;HPM_P1;HPM_P2
2022/08/25 00:02:32;;;;;;;14.40;9.40;;;25.50;74.90;;;;;;221108;1265;24275;-53
2022/08/25 00:07:35;;;;;;;10.80;8.70;;;25.50;75.10;;;;;;220946;1265;24367;-51
2022/08/25 00:12:37;;;;;;;12.40;8.90;;;25.50;74.80;;;;;;220823;1265;25659;-50
2022/08/25 00:17:42;;;;;;;9.80;8.40;;;25.50;74.90;;;;;;220772;1265;22550;-54
2022/08/25 00:22:45;;;;;;;10.10;9.00;;;25.50;74.70;;;;;;220951;1265;24332;-51
2022/08/25 00:27:48;;;;;;;9.30;8.10;;;25.50;74.60;;;;;;220938;1265;25357;-49
2022/08/25 00:32:51;;;;;;;9.50;8.40;;;25.50;74.50;;;;;;221024;1267;23975;-51
2022/08/25 00:37:59;;;;;;;8.80;7.90;;;25.50;75.00;;;;;;222327;1265;23204;-48
2022/08/25 00:43:01;;;;;;;8.40;7.30;;;25.50;74.80;;;;;;220806;1265;23156;-51
2022/08/25 00:48:04;;;;;;;10.00;8.20;;;25.50;74.50;;;;;;221185;1262;25364;-49
2022/08/25 00:53:07;;;;;;;8.80;7.90;;;25.50;74.20;;;;;;221186;1263;25363;-53
2022/08/25 00:58:18;;;;;;;9.10;7.60;;;25.50;74.90;;;;;;221205;1261;22577;-52
2022/08/25 01:03:24;;;;;;;11.00;7.90;;;25.40;74.50;;;;;;220977;1265;24191;-52
2022/08/25 01:08:35;;;;;;;8.50;7.60;;;25.40;74.50;;;;;;220968;1263;22558;-52
2022/08/25 01:13:48;;;;;;;8.80;7.20;;;25.40;74.30;;;;;;220917;1265;25386;-51
2022/08/25 01:18:55;;;;;;;8.40;7.40;;;25.40;74.40;;;;;;221286;1262;24223;-52
2022/08/25 01:23:59;;;;;;;8.70;7.80;;;25.40;74.30;;;;;;221017;1262;24374;-52
2022/08/25 01:29:20;;;;;;;11.30;7.70;;;25.40;74.20;;;;;;220916;1265;22703;-52
2022/08/25 01:34:28;;;;;;;10.50;8.60;;;25.40;74.10;;;;;;221018;1265;22654;-49
2022/08/25 01:39:37;;;;;;;8.80;7.40;;;25.40;74.50;;;;;;220965;1265;25452;-52
2022/08/25 01:44:43;;;;;;;8.60;7.70;;;25.40;74.10;;;;;;221019;1265;24222;-50
2022/08/25 01:49:45;;;;;;;8.70;7.80;;;25.40;74.10;;;;;;220944;1265;26656;-50
2022/08/25 01:54:48;;;;;;;9.20;7.80;;;25.40;74.40;;;;;;220926;1263;22544;-50
2022/08/25 01:59:50;;;;;;;8.60;7.70;;;25.40;74.10;;;;;;220946;1265;25359;-50
2022/08/25 02:04:53;;;;;;;7.70;7.00;;;25.40;74.00;;;;;;220702;1267;22529;-49
2022/08/25 02:09:56;;;;;;;8.80;7.80;;;25.40;74.00;;;;;;220630;1265;22535;-52
2022/08/25 02:15:07;;;;;;;8.40;7.00;;;25.40;74.10;;;;;;227943;1265;24175;-50
2022/08/25 02:20:09;;;;;;;8.60;7.50;;;25.40;73.90;;;;;;222924;1265;22519;-49
2022/08/25 02:25:12;;;;;;;8.50;7.70;;;25.40;73.80;;;;;;221041;1265;23268;-54
2022/08/25 02:30:16;;;;;;;8.20;7.40;;;25.40;74.00;;;;;;220714;1265;24218;-52
2022/08/25 02:35:18;;;;;;;9.70;7.40;;;25.40;73.70;;;;;;220618;1265;25200;-52
2022/08/25 02:40:21;;;;;;;7.20;6.60;;;25.40;73.80;;;;;;220333;1265;24239;-50
2022/08/25 02:45:23;;;;;;;8.30;7.10;;;25.40;73.80;;;;;;220998;1265;22545;-51
2022/08/25 02:50:26;;;;;;;8.50;6.20;;;25.40;73.80;;;;;;220967;1265;25599;-50
2022/08/25 02:55:28;;;;;;;7.70;6.60;;;25.40;74.00;;;;;;220782;1262;24152;-50
2022/08/25 03:00:30;;;;;;;7.40;6.60;;;25.40;73.70;;;;;;220606;1265;25467;-52
2022/08/25 03:05:33;;;;;;;7.30;6.50;;;25.40;74.10;;;;;;221190;1261;22624;-50
2022/08/25 03:10:35;;;;;;;6.70;5.90;;;25.40;73.70;;;;;;221142;1262;25858;-49
2022/08/25 03:15:38;;;;;;;7.00;6.10;;;25.30;74.00;;;;;;221036;1262;22526;-53
2022/08/25 03:20:40;;;;;;;6.50;5.90;;;25.40;73.70;;;;;;221170;1262;24488;-51
2022/08/25 03:31:04;;;;;;;7.70;5.70;;;25.30;73.50;;;;;;220925;1265;25240;-52
2022/08/25 03:36:07;;;;;;;9.60;5.90;;;25.30;73.40;;;;;;221025;1262;25260;-49
2022/08/25 03:41:13;;;;;;;7.00;5.70;;;25.30;73.50;;;;;;221080;1262;25232;-55
2022/08/25 03:46:28;;;;;;;7.00;5.30;;;25.30;73.50;;;;;;221250;1261;24349;-49
2022/08/25 03:51:35;;;;;;;7.10;4.90;;;25.30;73.40;;;;;;221189;1262;24091;-53
2022/08/25 03:56:38;;;;;;;5.90;5.40;;;25.30;73.40;;;;;;221272;1261;22928;-51
2022/08/25 04:01:42;;;;;;;6.20;5.00;;;25.30;73.30;;;;;;221164;1262;24655;-52
2022/08/25 04:06:45;;;;;;;7.00;5.10;;;25.30;73.20;;;;;;220877;1265;24182;-51
2022/08/25 04:11:50;;;;;;;6.00;5.20;;;25.30;73.30;;;;;;220962;1265;22716;-52
2022/08/25 04:17:05;;;;;;;6.30;5.00;;;25.30;73.20;;;;;;221014;1265;22554;-50
2022/08/25 04:22:10;;;;;;;6.00;5.00;;;25.30;73.10;;;;;;220799;1267;24212;-54
2022/08/25 04:27:16;;;;;;;5.70;5.20;;;25.30;73.60;;;;;;220877;1265;24238;-48
2022/08/25 04:32:19;;;;;;;6.00;4.50;;;25.30;72.60;;;;;;221187;1265;24789;-53
2022/08/25 04:37:22;;;;;;;8.10;5.00;;;25.30;73.00;;;;;;220983;1265;22551;-50
2022/08/25 04:42:25;;;;;;;5.90;5.10;;;25.20;72.80;;;;;;220938;1265;22544;-52
2022/08/25 04:47:28;;;;;;;5.90;5.30;;;25.30;72.80;;;;;;220895;1265;23250;-52
2022/08/25 04:52:30;;;;;;;5.40;4.80;;;25.30;72.60;;;;;;220846;1265;24372;-49
2022/08/25 04:57:33;;;;;;;5.20;4.60;;;25.20;72.60;;;;;;219740;1265;1464236;-50
2022/08/25 05:02:36;;;;;;;9.00;5.30;;;25.30;72.80;;;;;;220692;1265;23899;-49
2022/08/25 05:07:40;;;;;;;6.50;5.00;;;25.20;72.60;;;;;;220982;1265;22704;-51
2022/08/25 05:12:43;;;;;;;6.50;5.00;;;25.30;72.70;;;;;;220666;1265;22557;-50
2022/08/25 05:17:46;;;;;;;5.20;4.70;;;25.20;72.70;;;;;;221348;1262;22655;-53
2022/08/25 05:22:51;;;;;;;5.10;4.60;;;25.30;72.70;;;;;;221118;1262;22564;-52
2022/08/25 05:27:54;;;;;;;5.90;5.20;;;25.30;73.10;;;;;;221491;1262;22543;-52
2022/08/25 05:32:56;;;;;;;5.50;5.00;;;25.30;72.60;;;;;;221284;1262;22550;-50
2022/08/25 05:37:59;;;;;;;6.50;4.70;;;25.30;72.60;;;;;;221104;1262;22749;-50
2022/08/25 05:43:01;;;;;;;9.10;5.00;;;25.30;72.70;;;;;;221389;1261;24388;-52
2022/08/25 05:48:03;;;;;;;8.10;4.80;;;25.30;72.30;;;;;;221411;1262;22538;-49
2022/08/25 05:53:06;;;;;;;7.50;4.90;;;25.30;72.40;;;;;;221507;1262;24381;-50
2022/08/25 05:58:08;;;;;;;7.40;4.90;;;25.30;72.60;;;;;;221651;1263;22641;-49
2022/08/25 06:03:12;;;;;;;6.60;5.00;;;25.30;72.90;;;;;;221488;1262;24256;-51
2022/08/25 06:08:15;;;;;;;5.90;4.90;;;25.30;72.70;;;;;;221636;1262;22691;-51
2022/08/25 06:13:19;;;;;;;9.90;5.20;;;25.30;72.60;;;;;;221506;1262;24378;-49
2022/08/25 06:18:30;;;;;;;6.40;4.20;;;25.30;72.90;;;;;;221123;1262;22550;-51
2022/08/25 06:23:32;;;;;;;5.20;4.60;;;25.30;72.90;;;;;;221410;1262;22535;-46
2022/08/25 06:28:35;;;;;;;5.40;4.60;;;25.30;73.40;;;;;;221040;1265;22701;-47
2022/08/25 06:33:38;;;;;;;6.90;4.80;;;25.30;72.70;;;;;;221130;1265;25325;-46
2022/08/25 06:38:40;;;;;;;5.70;4.90;;;25.30;73.30;;;;;;221245;1265;24137;-46
2022/08/25 06:43:44;;;;;;;5.90;5.00;;;25.30;72.80;;;;;;221260;1265;22553;-50
2022/08/25 06:48:55;;;;;;;6.00;4.90;;;25.30;73.40;;;;;;221158;1265;22532;-47
2022/08/25 06:53:59;;;;;;;6.70;5.30;;;25.30;73.40;;;;;;220935;1265;22793;-50
2022/08/25 06:59:06;;;;;;;7.70;5.40;;;25.30;73.60;;;;;;220895;1265;26469;-49
2022/08/25 07:04:10;;;;;;;10.70;6.00;;;25.40;73.30;;;;;;220956;1262;22569;-53
2022/08/25 07:09:14;;;;;;;8.20;5.30;;;25.40;74.00;;;;;;220958;1262;25436;-53
2022/08/25 07:14:20;;;;;;;18.20;6.70;;;25.50;73.70;;;;;;220957;1262;24781;-54
2022/08/25 07:19:23;;;;;;;19.10;7.60;;;25.50;74.10;;;;;;221286;1262;24268;-52
2022/08/25 07:24:25;;;;;;;19.20;7.10;;;25.50;74.00;;;;;;221125;1262;25238;-52
2022/08/25 07:29:30;;;;;;;13.10;7.40;;;25.50;74.40;;;;;;221160;1261;25401;-52
2022/08/25 07:40:03;;;;;;;11.90;7.70;;;25.50;73.90;;;;;;221067;1261;22690;-55
2022/08/25 07:45:11;;;;;;;14.90;7.80;;;25.60;74.40;;;;;;221377;1262;22617;-54
2022/08/25 07:50:14;;;;;;;23.20;7.80;;;25.60;74.10;;;;;;221175;1262;22531;-53
2022/08/25 07:55:21;;;;;;;18.70;8.50;;;25.60;74.10;;;;;;221176;1262;24202;-54
2022/08/25 08:00:29;;;;;;;11.80;7.70;;;25.70;74.50;;;;;;221187;1261;22696;-52
2022/08/25 08:05:32;;;;;;;14.00;8.50;;;25.70;74.20;;;;;;221272;1262;22709;-52
2022/08/25 08:10:39;;;;;;;11.50;8.00;;;25.60;73.90;;;;;;221520;1261;24213;-53
2022/08/25 08:16:11;;;;;;;13.20;9.40;;;25.60;74.40;;;;;;221599;1261;23016;-54
2022/08/25 08:21:25;;;;;;;14.40;8.40;;;25.70;74.40;;;;;;221551;1262;22543;-54
2022/08/25 08:26:29;;;;;;;19.30;8.60;;;25.70;73.90;;;;;;221255;1262;24142;-55
2022/08/25 08:31:58;;;;;;;13.20;8.60;;;25.80;74.50;;;;;;221182;1262;22591;-51
2022/08/25 08:37:13;;;;;;;16.60;9.90;;;25.80;73.70;;;;;;221390;1262;25237;-55
2022/08/25 08:42:36;;;;;;;;;;;25.90;74.00;;;;;;221296;1262;24296;-57
2022/08/25 08:48:08;;;;;;;27.80;10.40;;;25.90;74.10;;;;;;221458;1262;25232;-54
2022/08/25 08:53:28;;;;;;;15.80;8.40;;;25.90;74.30;;;;;;221051;1262;26483;-54
2022/08/25 08:58:59;;;;;;;16.50;9.10;;;26.00;74.60;;;;;;221468;1262;24214;-52
2022/08/25 09:04:30;;;;;;;14.90;9.00;;;26.10;73.80;;;;;;221415;1262;22681;-54
2022/08/25 09:09:39;;;;;;;19.80;8.60;;;26.10;73.20;;;;;;221566;1262;25221;-56
2022/08/25 09:14:55;;;;;;;15.30;8.10;;;26.20;73.20;;;;;;221162;1262;22705;-51
2022/08/25 09:20:24;;;;;;;17.40;7.80;;;26.20;73.00;;;;;;221362;1262;24214;-53
2022/08/25 09:25:40;;;;;;;13.40;8.10;;;26.20;73.40;;;;;;221623;1262;22708;-54
2022/08/25 09:31:02;;;;;;;19.80;7.80;;;26.30;73.80;;;;;;221307;1261;22682;-56
2022/08/25 09:36:08;;;;;;;17.60;7.60;;;26.30;73.30;;;;;;221410;1262;23492;-55
2022/08/25 09:41:33;;;;;;;16.90;7.30;;;26.30;72.70;;;;;;221260;1262;25315;-55
2022/08/25 09:46:38;;;;;;;13.00;7.30;;;26.30;72.20;;;;;;221415;1263;22761;-55
2022/08/25 09:51:47;;;;;;;15.90;6.60;;;26.30;72.40;;;;;;221275;1264;22719;-52
2022/08/25 09:57:00;;;;;;;15.30;6.50;;;26.30;71.90;;;;;;221048;1262;22550;-53
2022/08/25 10:02:24;;;;;;;12.80;5.60;;;26.40;70.50;;;;;;220726;1262;24236;-54
2022/08/25 10:07:34;;;;;;;11.70;6.10;;;26.40;70.20;;;;;;220880;1265;22566;-54
2022/08/25 10:12:47;;;;;;;15.90;5.60;;;26.50;70.10;;;;;;221063;1265;22532;-50
2022/08/25 10:17:54;;;;;;;18.00;6.10;;;26.60;70.30;;;;;;221133;1262;24191;-51
2022/08/25 10:23:13;;;;;;;14.30;5.70;;;26.70;69.90;;;;;;220555;1265;23178;-54
2022/08/25 10:28:48;;;;;;;18.00;6.40;;;26.80;69.90;;;;;;221118;1262;22713;-51
2022/08/25 10:34:18;;;;;;;14.20;6.10;;;26.80;70.00;;;;;;221276;1262;24256;-52
2022/08/25 10:39:42;;;;;;;16.20;6.60;;;26.80;70.40;;;;;;221127;1265;25364;-51
2022/08/25 10:50:53;;;;;;;19.90;5.70;;;26.70;70.60;;;;;;221052;1262;22551;-50
2022/08/25 10:56:48;;;;;;;15.60;6.50;;;26.90;70.40;;;;;;221016;1265;24074;-51
2022/08/25 11:02:37;;;;;;;19.80;6.30;;;26.90;70.60;;;;;;220954;1262;22547;-51
2022/08/25 11:07:47;;;;;;;17.80;6.20;;;26.90;70.80;;;;;;221584;1261;22563;-51
2022/08/25 11:12:59;;;;;;;14.90;6.30;;;26.90;71.10;;;;;;221520;1262;22713;-51
2022/08/25 11:18:09;;;;;;;18.60;6.60;;;26.90;71.10;;;;;;221749;1262;24235;-53
2022/08/25 11:23:39;;;;;;;12.40;6.70;;;27.00;71.10;;;;;;221548;1262;25229;-52
2022/08/25 11:28:55;;;;;;;17.20;6.20;;;27.00;71.10;;;;;;221477;1261;24292;-49
2022/08/25 11:33:58;;;;;;;12.60;6.30;;;27.00;71.00;;;;;;221571;1262;23003;-52
2022/08/25 11:39:34;;;;;;;22.60;7.00;;;27.00;71.40;;;;;;221530;1262;23056;-52
2022/08/25 11:44:42;;;;;;;21.90;7.20;;;27.00;71.60;;;;;;220992;1262;22722;-51
2022/08/25 11:50:21;;;;;;;22.90;6.80;;;27.00;71.50;;;;;;221355;1265;22731;-50
2022/08/25 11:55:36;;;;;;;18.10;6.90;;;27.10;71.70;;;;;;221087;1265;22595;-50
2022/08/25 12:00:42;;;;;;;16.10;6.50;;;27.10;71.20;;;;;;221104;1265;22547;-51
2022/08/25 12:05:51;;;;;;;25.70;7.00;;;27.20;71.20;;;;;;221341;1265;24060;-53
2022/08/25 12:11:09;;;;;;;17.30;6.50;;;27.20;71.50;;;;;;221093;1262;25298;-52
2022/08/25 12:16:44;;;;;;;19.00;6.80;;;27.20;71.20;;;;;;220923;1262;22983;-51
2022/08/25 12:22:26;;;;;;;20.00;6.60;;;27.30;71.20;;;;;;221093;1265;25176;-54
2022/08/25 12:28:09;;;;;;;17.20;7.20;;;27.30;71.20;;;;;;221209;1265;24402;-53
2022/08/25 12:33:36;;;;;;;18.30;6.30;;;27.40;71.20;;;;;;221345;1262;22567;-53
2022/08/25 12:38:51;;;;;;;18.40;6.30;;;27.40;71.10;;;;;;221418;1262;25406;-53
2022/08/25 12:44:33;;;;;;;19.20;6.40;;;27.40;71.20;;;;;;221265;1262;22908;-52
2022/08/25 12:49:40;;;;;;;26.90;6.70;;;27.40;70.90;;;;;;221548;1262;22528;-51
2022/08/25 12:55:05;;;;;;;21.70;6.10;;;27.50;70.80;;;;;;221235;1262;25282;-52
2022/08/25 13:00:36;;;;;;;18.30;5.90;;;27.50;70.80;;;;;;221405;1262;25319;-52
2022/08/25 13:06:06;;;;;;;20.60;6.90;;;27.50;71.00;;;;;;221438;1262;23932;-52
2022/08/25 13:11:38;;;;;;;20.90;6.80;;;27.50;70.80;;;;;;221283;1262;25377;-53
2022/08/25 13:16:55;;;;;;;24.90;6.40;;;27.60;70.70;;;;;;221596;1262;24249;-49
2022/08/25 13:21:59;;;;;;;24.50;6.10;;;27.50;70.40;;;;;;221637;1262;24427;-49
2022/08/25 13:27:07;;;;;;;15.10;5.60;;;27.50;70.40;;;;;;221331;1262;22533;-52
2022/08/25 13:32:13;;;;;;;21.00;6.20;;;27.50;70.70;;;;;;221537;1262;24208;-51
2022/08/25 13:37:27;;;;;;;22.20;6.60;;;27.60;70.70;;;;;;221775;1262;24226;-51
2022/08/25 13:42:32;;;;;;;26.70;7.40;;;27.60;70.60;;;;;;220934;1265;22617;-53
2022/08/25 13:47:38;;;;;;;23.60;6.10;;;27.60;71.10;;;;;;220999;1262;22551;-52
2022/08/25 13:52:55;;;;;;;22.60;7.20;;;27.60;70.70;;;;;;221600;1262;22685;-51
2022/08/25 13:57:58;;;;;;;16.00;5.80;;;27.60;70.60;;;;;;221160;1262;24216;-49
2022/08/25 14:03:33;;;;;;;18.00;5.90;;;27.60;71.00;;;;;;221315;1262;22546;-49
2022/08/25 14:08:44;;;;;;;19.00;5.80;;;27.60;70.70;;;;;;221461;1262;26601;-50
2022/08/25 14:13:48;;;;;;;24.80;6.30;;;27.60;71.10;;;;;;221380;1262;24333;-51
2022/08/25 14:18:53;;;;;;;26.60;5.80;;;27.60;71.00;;;;;;221258;1262;22691;-56
2022/08/25 14:24:00;;;;;;;24.30;6.50;;;27.20;67.70;;;;;;221561;1262;23443;-57
2022/08/25 14:29:02;;;;;;;29.60;5.80;;;26.50;65.80;;;;;;221114;1262;25512;-55
2022/08/25 14:34:22;;;;;;;20.30;5.80;;;26.20;64.80;;;;;;221035;1261;25477;-56
2022/08/25 14:39:27;;;;;;;28.90;6.40;;;26.30;65.40;;;;;;221039;1264;25391;-55
2022/08/25 14:44:30;;;;;;;22.30;5.90;;;26.20;67.70;;;;;;220967;1262;23942;-54
2022/08/25 14:49:37;;;;;;;19.20;6.40;;;26.20;68.00;;;;;;220627;1265;25463;-52
2022/08/25 14:54:39;;;;;;;20.60;5.70;;;26.30;67.10;;;;;;221207;1262;25298;-54
2022/08/25 14:59:46;;;;;;;18.80;6.00;;;26.20;66.10;;;;;;220968;1262;23205;-50
2022/08/25 15:05:04;;;;;;;20.10;5.20;;;26.00;65.50;;;;;;220687;1265;25376;-47
2022/08/25 15:10:10;;;;;;;17.60;5.80;;;26.10;66.50;;;;;;221174;1265;22557;-52
2022/08/25 15:15:17;;;;;;;15.10;5.60;;;26.10;68.10;;;;;;221087;1265;22576;-53
2022/08/25 15:20:20;;;;;;;16.00;6.30;;;26.00;69.60;;;;;;221216;1265;22533;-54
2022/08/25 15:25:26;;;;;;;16.40;4.90;;;25.90;69.90;;;;;;221121;1262;24381;-52
2022/08/25 15:30:32;;;;;;;13.90;4.90;;;25.70;68.30;;;;;;221162;1262;22540;-53
2022/08/25 15:35:34;;;;;;;17.10;5.20;;;25.70;66.70;;;;;;221339;1262;25495;-50
2022/08/25 15:40:38;;;;;;;19.20;5.60;;;25.70;66.60;;;;;;220879;1262;22875;-50
2022/08/25 15:45:49;;;;;;;16.10;5.00;;;25.80;67.20;;;;;;220871;1261;25295;-49
2022/08/25 15:50:55;;;;;;;18.90;5.00;;;25.70;68.00;;;;;;221181;1265;24752;-49
2022/08/25 15:56:00;;;;;;;18.90;5.50;;;25.60;69.30;;;;;;220910;1265;22531;-49
2022/08/25 16:01:20;;;;;;;14.90;4.90;;;25.50;68.90;;;;;;220535;1265;22682;-50
2022/08/25 16:06:31;;;;;;;11.30;4.50;;;25.50;67.70;;;;;;221306;1264;25467;-49
2022/08/25 16:11:42;;;;;;;11.00;4.50;;;25.40;66.30;;;;;;220870;1262;22694;-54
2022/08/25 16:17:22;;;;;;;12.60;4.80;;;25.50;66.30;;;;;;221375;1262;24186;-52
2022/08/25 16:22:24;;;;;;;16.20;4.60;;;25.50;65.80;;;;;;221343;1261;25302;-53
2022/08/25 16:27:30;;;;;;;14.90;5.40;;;25.40;67.30;;;;;;221480;1262;24274;-49
2022/08/25 16:32:40;;;;;;;10.30;4.70;;;25.40;68.40;;;;;;221263;1262;25499;-52
2022/08/25 16:37:43;;;;;;;10.60;4.70;;;25.30;68.90;;;;;;220895;1265;22556;-51
2022/08/25 16:42:45;;;;;;;15.90;5.20;;;25.20;67.70;;;;;;221416;1265;22545;-51
2022/08/25 16:47:49;;;;;;;12.90;4.90;;;25.20;65.70;;;;;;220781;1262;25038;-54
2022/08/25 16:58:12;;;;;;;13.20;5.20;;;25.20;66.80;;;;;;219625;1265;22713;-49
2022/08/25 17:03:15;;;;;;;14.20;5.20;;;25.20;69.90;;;;;;228641;1264;22501;-50
2022/08/25 17:08:32;;;;;;;15.10;5.10;;;25.10;70.30;;;;;;228612;1263;22518;-54
2022/08/25 17:13:38;;;;;;;14.30;5.60;;;25.10;68.90;;;;;;222559;1262;24522;-53
2022/08/25 17:18:47;;;;;;;14.10;5.30;;;25.00;66.70;;;;;;222798;1261;22610;-54
2022/08/25 17:23:49;;;;;;;8.40;4.30;;;25.00;65.70;;;;;;221585;1262;22658;-51
2022/08/25 17:28:53;;;;;;;12.30;4.90;;;25.10;69.20;;;;;;221429;1263;22544;-53
2022/08/25 17:33:55;;;;;;;9.40;4.60;;;25.00;68.10;;;;;;221266;1262;22555;-48
2022/08/25 17:38:59;;;;;;;10.50;4.60;;;25.00;67.20;;;;;;220920;1262;25275;-53
2022/08/25 17:44:03;;;;;;;10.90;4.80;;;25.00;69.90;;;;;;228862;1261;22447;-54
2022/08/25 17:49:06;;;;;;;8.90;4.70;;;25.00;67.60;;;;;;228797;1261;22414;-52
2022/08/25 17:54:08;;;;;;;11.90;5.50;;;25.10;68.20;;;;;;223825;1262;24207;-50
2022/08/25 17:59:12;;;;;;;10.40;5.40;;;25.00;70.30;;;;;;228692;1261;22656;-51
2022/08/25 18:04:15;;;;;;;10.10;5.10;;;24.90;68.00;;;;;;220991;1262;22751;-50
2022/08/25 18:09:20;;;;;;;10.10;4.70;;;25.10;71.50;;;;;;221177;1265;25194;-51
2022/08/25 18:14:30;;;;;;;8.30;4.70;;;25.10;69.00;;;;;;221244;1262;22524;-50
2022/08/25 18:19:39;;;;;;;11.50;4.40;;;25.10;72.60;;;;;;221514;1262;25408;-49
2022/08/25 18:24:47;;;;;;;8.30;4.40;;;25.00;71.80;;;;;;221585;1262;22791;-53
2022/08/25 18:29:51;;;;;;;11.00;5.10;;;25.00;68.50;;;;;;221404;1262;22607;-51
2022/08/25 18:34:57;;;;;;;9.40;4.10;;;25.00;73.20;;;;;;221275;1262;25544;-54
2022/08/25 18:40:22;;;;;;;11.50;4.70;;;24.90;71.30;;;;;;221194;1262;22687;-52
2022/08/25 18:45:51;;;;;;;11.10;4.70;;;25.10;71.70;;;;;;221057;1262;22563;-54
2022/08/25 18:51:04;;;;;;;15.40;4.70;;;25.20;71.00;;;;;;220876;1262;22866;-52
2022/08/25 18:56:09;;;;;;;15.60;5.50;;;25.50;70.30;;;;;;220877;1265;25216;-54
2022/08/25 19:01:16;;;;;;;9.90;4.50;;;25.70;70.90;;;;;;220990;1265;24062;-52
2022/08/25 19:06:24;;;;;;;11.00;4.40;;;25.70;71.60;;;;;;220730;1265;23961;-52
2022/08/25 19:11:26;;;;;;;12.30;4.70;;;25.70;71.60;;;;;;220951;1262;23748;-50
2022/08/25 19:16:41;;;;;;;9.80;4.50;;;25.70;71.30;;;;;;221319;1262;24215;-52
2022/08/25 19:21:46;;;;;;;9.30;4.20;;;25.80;71.60;;;;;;221372;1261;23934;-51
2022/08/25 19:26:50;;;;;;;14.40;4.60;;;25.80;71.90;;;;;;221041;1262;22550;-52
2022/08/25 19:31:57;;;;;;;10.60;5.00;;;25.90;71.60;;;;;;221224;1262;24224;-49
2022/08/25 19:37:05;;;;;;;11.10;4.30;;;25.90;71.60;;;;;;221190;1261;24286;-54
2022/08/25 19:42:10;;;;;;;10.30;4.30;;;25.90;71.80;;;;;;220930;1262;27778;-54
2022/08/25 19:47:36;;;;;;;11.30;5.70;;;26.00;71.20;;;;;;221387;1264;22513;-52
2022/08/25 19:52:41;;;;;;;7.70;4.10;;;26.10;71.60;;;;;;221265;1262;24265;-49
2022/08/25 19:57:47;;;;;;;11.80;4.70;;;26.10;71.80;;;;;;221504;1262;24239;-52
2022/08/25 20:03:00;;;;;;;8.40;3.90;;;26.10;71.70;;;;;;221065;1262;22652;-52
2022/08/25 20:08:09;;;;;;;8.70;4.20;;;26.20;71.90;;;;;;220994;1265;22553;-53
2022/08/25 20:13:13;;;;;;;11.20;5.10;;;26.20;72.80;;;;;;221216;1265;24358;-49
2022/08/25 20:18:16;;;;;;;13.00;4.30;;;26.30;71.80;;;;;;220863;1264;25707;-52
2022/08/25 20:28:44;;;;;;;9.80;4.40;;;26.30;71.80;;;;;;220967;1265;22547;-50
2022/08/25 20:33:54;;;;;;;9.80;4.10;;;26.30;71.70;;;;;;220980;1265;24498;-50
2022/08/25 20:39:05;;;;;;;9.20;3.80;;;26.30;72.00;;;;;;220732;1265;22540;-49
2022/08/25 20:44:09;;;;;;;13.00;4.70;;;26.40;72.00;;;;;;220867;1265;25411;-47
2022/08/25 20:49:12;;;;;;;13.30;4.70;;;26.40;72.70;;;;;;220997;1263;22657;-50
2022/08/25 20:54:23;;;;;;;13.80;5.30;;;26.40;72.80;;;;;;220999;1265;22548;-49
2022/08/25 20:59:33;;;;;;;19.70;6.30;;;26.40;74.40;;;;;;221217;1265;22544;-50
2022/08/25 21:04:37;;;;;;;18.80;6.20;;;26.40;75.10;;;;;;220945;1262;26909;-50
2022/08/25 21:09:55;;;;;;;20.10;6.20;;;26.40;75.60;;;;;;220885;1265;26595;-52
2022/08/25 21:14:59;;;;;;;17.40;6.40;;;26.40;75.80;;;;;;221088;1262;26535;-49
2022/08/25 21:20:07;;;;;;;14.70;5.80;;;26.40;75.40;;;;;;221257;1261;24274;-52
2022/08/25 21:25:35;;;;;;;22.10;6.60;;;26.50;76.20;;;;;;221449;1261;22547;-51
2022/08/25 21:30:42;;;;;;;20.90;7.00;;;26.50;76.20;;;;;;220365;1268;22532;-49
2022/08/25 21:35:50;;;;;;;16.60;6.50;;;26.50;76.10;;;;;;220476;1268;22535;-48
2022/08/25 21:41:20;;;;;;;21.90;7.40;;;26.60;76.20;;;;;;220532;1268;22554;-49
2022/08/25 21:46:31;;;;;;;22.30;6.70;;;26.50;75.90;;;;;;220175;1268;22575;-49
2022/08/25 21:51:43;;;;;;;13.30;6.70;;;26.60;75.80;;;;;;220388;1268;22577;-51
2022/08/25 21:57:06;;;;;;;15.40;7.30;;;26.50;75.90;;;;;;220383;1268;24220;-48
2022/08/25 22:02:14;;;;;;;18.00;6.50;;;26.50;76.00;;;;;;220063;1271;24370;-49
2022/08/25 22:07:28;;;;;;;17.60;7.60;;;26.60;76.10;;;;;;220128;1268;22583;-48
2022/08/25 22:12:37;;;;;;;14.40;6.60;;;26.70;75.70;;;;;;220108;1269;22824;-51
2022/08/25 22:17:44;;;;;;;17.80;7.10;;;26.70;75.50;;;;;;220218;1268;22546;-49
2022/08/25 22:22:47;;;;;;;16.10;6.40;;;26.60;75.20;;;;;;221077;1262;22544;-48
2022/08/25 22:27:49;;;;;;;18.20;6.20;;;26.60;74.90;;;;;;221331;1262;22632;-50
2022/08/25 22:32:58;;;;;;;19.60;6.30;;;26.70;74.80;;;;;;221246;1262;24284;-50
2022/08/25 22:38:02;;;;;;;14.70;5.90;;;26.60;74.40;;;;;;221341;1262;25447;-50
2022/08/25 22:43:09;;;;;;;22.80;6.70;;;26.70;74.60;;;;;;221059;1265;22706;-53
2022/08/25 22:48:18;;;;;;;20.50;6.50;;;26.70;74.30;;;;;;221615;1262;22709;-52
2022/08/25 22:53:23;;;;;;;17.60;6.20;;;26.70;74.10;;;;;;221101;1262;24266;-51
2022/08/25 22:58:25;;;;;;;15.30;6.30;;;26.60;74.00;;;;;;221477;1265;24227;-50
2022/08/25 23:03:28;;;;;;;16.30;6.00;;;26.60;74.00;;;;;;221203;1265;22547;-50
2022/08/25 23:08:31;;;;;;;12.80;5.30;;;26.60;74.10;;;;;;221247;1262;22940;-51
2022/08/25 23:13:45;;;;;;;17.00;5.90;;;26.60;74.70;;;;;;221262;1261;25460;-48
2022/08/25 23:18:50;;;;;;;16.10;6.30;;;26.60;74.40;;;;;;221459;1261;25351;-49
2022/08/25 23:24:00;;;;;;;15.70;5.20;;;26.60;74.10;;;;;;221472;1261;23976;-50
2022/08/25 23:29:04;;;;;;;18.40;8.00;;;26.60;73.60;;;;;;221480;1262;22683;-52
2022/08/25 23:34:20;;;;;;;15.00;5.90;;;26.60;74.00;;;;;;221639;1264;25330;-52
2022/08/25 23:39:24;;;;;;;12.00;5.50;;;26.60;73.90;;;;;;221702;1262;24351;-50
2022/08/25 23:44:27;;;;;;;13.50;5.80;;;26.60;73.80;;;;;;221761;1262;25261;-51
2022/08/25 23:49:30;;;;;;;15.80;6.30;;;26.50;73.60;;;;;;221301;1262;23925;-50
2022/08/25 23:54:32;;;;;;;20.30;6.60;;;26.60;73.90;;;;;;224053;1261;25378;-52
2022/08/25 23:59:42;;;;;;;18.50;6.40;;;26.60;73.90;;;;;;221703;1261;23888;-49
